createdAt,value
2023-04-21T00:00:57.096Z,9.86
2023-04-21T00:03:28.345Z,9.81
2023-04-21T00:06:01.668Z,9.67
2023-04-21T00:08:31.457Z,9.62
2023-04-21T00:11:01.240Z,9.50
2023-04-21T00:13:31.054Z,9.22
2023-04-21T00:16:00.775Z,9.42
2023-04-21T00:18:30.614Z,9.44
2023-04-21T00:21:03.069Z,9.41
2023-04-21T00:23:32.848Z,9.19
2023-04-21T00:26:03.244Z,9.34
2023-04-21T00:28:33.156Z,9.28
2023-04-21T00:31:02.965Z,9.30
2023-04-21T00:33:32.795Z,9.41
2023-04-21T00:36:05.087Z,9.45
2023-04-21T00:38:34.849Z,9.38
2023-04-21T00:41:04.596Z,9.31
2023-04-21T00:43:34.358Z,9.39
2023-04-21T00:46:04.167Z,9.24
2023-04-21T00:48:34.624Z,8.87
2023-04-21T00:51:07.140Z,9.20
2023-04-21T00:53:37.834Z,9.10
2023-04-21T00:56:09.405Z,9.12
2023-04-21T00:58:41.707Z,9.14
2023-04-21T01:01:11.510Z,8.99
2023-04-21T01:03:41.484Z,9.09
2023-04-21T01:06:15.436Z,9.20
2023-04-21T01:08:45.650Z,9.05
2023-04-21T01:11:18.779Z,9.16
2023-04-21T01:13:48.522Z,9.17
2023-04-21T01:16:21.901Z,9.02
2023-04-21T01:18:52.228Z,9.09
2023-04-21T01:21:24.856Z,9.28
2023-04-21T01:23:57.557Z,9.29
2023-04-21T01:26:27.290Z,9.33
2023-04-21T01:28:59.935Z,9.27
2023-04-21T01:31:29.823Z,9.22
2023-04-21T01:33:59.637Z,9.09
2023-04-21T01:36:29.468Z,9.11
2023-04-21T01:39:01.828Z,9.38
2023-04-21T01:41:32.939Z,9.36
2023-04-21T01:44:02.711Z,9.25
2023-04-21T01:46:34.177Z,9.42
2023-04-21T01:49:04.099Z,9.38
2023-04-21T01:51:36.164Z,9.46
2023-04-21T01:54:08.623Z,9.40
2023-04-21T01:56:38.439Z,9.44
2023-04-21T01:59:08.224Z,9.31
2023-04-21T02:01:38.370Z,9.45
2023-04-21T02:04:08.581Z,9.50
2023-04-21T02:06:38.565Z,9.52
2023-04-21T02:09:12.446Z,9.57
2023-04-21T02:11:42.529Z,9.62
2023-04-21T02:14:12.352Z,9.70
2023-04-21T02:16:43.582Z,9.77
2023-04-21T02:19:13.374Z,9.88
2023-04-21T02:21:43.094Z,9.75
2023-04-21T02:24:15.514Z,9.86
2023-04-21T02:26:45.407Z,9.95
2023-04-21T02:29:15.186Z,9.96
2023-04-21T02:31:58.850Z,10.00
2023-04-21T02:34:33.043Z,9.99
2023-04-21T02:37:02.781Z,9.97
2023-04-21T02:39:35.077Z,9.96
2023-04-21T02:42:04.875Z,9.88
2023-04-21T02:44:34.611Z,9.86
2023-04-21T02:47:04.350Z,9.88
2023-04-21T02:49:34.071Z,9.55
2023-04-21T02:52:03.771Z,9.80
2023-04-21T02:54:36.129Z,9.83
2023-04-21T02:57:06.300Z,9.60
2023-04-21T02:59:36.466Z,9.75
2023-04-21T03:02:06.508Z,9.67
2023-04-21T03:04:36.463Z,9.63
2023-04-21T03:07:07.362Z,9.52
2023-04-21T03:09:39.676Z,9.66
2023-04-21T03:12:09.719Z,9.59
2023-04-21T03:14:39.471Z,9.49
2023-04-21T03:17:09.855Z,9.23
2023-04-21T03:19:39.611Z,9.35
2023-04-21T03:22:09.704Z,9.26
2023-04-21T03:24:42.019Z,9.21
2023-04-21T03:27:11.775Z,9.12
2023-04-21T03:29:41.630Z,9.20
2023-04-21T03:32:11.546Z,9.25
2023-04-21T03:34:41.357Z,9.17
2023-04-21T03:37:12.001Z,9.16
2023-04-21T03:39:44.346Z,9.13
2023-04-21T03:42:14.442Z,8.92
2023-04-21T03:44:44.245Z,9.00
2023-04-21T03:47:13.990Z,9.02
2023-04-21T03:49:43.704Z,8.98
2023-04-21T03:52:13.425Z,8.99
2023-04-21T03:54:45.735Z,8.98
2023-04-21T03:57:16.072Z,8.95
2023-04-21T03:59:46.657Z,9.07
2023-04-21T04:02:16.458Z,8.83
2023-04-21T04:04:46.322Z,9.10
2023-04-21T04:07:17.767Z,9.07
2023-04-21T04:09:50.071Z,9.15
2023-04-21T04:12:19.785Z,9.12
2023-04-21T04:14:49.528Z,9.10
2023-04-21T04:17:19.284Z,9.12
2023-04-21T04:19:48.987Z,9.18
2023-04-21T04:22:19.427Z,9.14
2023-04-21T04:24:51.769Z,9.22
2023-04-21T04:27:21.660Z,9.17
2023-04-21T04:29:51.658Z,9.09
2023-04-21T04:32:21.929Z,9.03
2023-04-21T04:34:52.515Z,9.16
2023-04-21T04:37:22.229Z,9.13
2023-04-21T04:39:56.773Z,9.08
2023-04-21T04:42:26.733Z,8.94
2023-04-21T04:44:57.506Z,8.96
2023-04-21T04:47:27.358Z,9.15
2023-04-21T04:49:57.112Z,9.06
2023-04-21T04:52:27.056Z,9.21
2023-04-21T04:54:59.381Z,9.23
2023-04-21T04:57:29.115Z,9.33
2023-04-21T04:59:59.023Z,9.45
2023-04-21T05:02:28.932Z,9.53
2023-04-21T05:04:59.272Z,9.46
2023-04-21T05:07:29.046Z,9.66
2023-04-21T05:10:01.444Z,9.45
2023-04-21T05:12:31.227Z,9.82
2023-04-21T05:15:01.108Z,9.56
2023-04-21T05:17:31.412Z,9.97
2023-04-21T05:20:01.301Z,9.98
2023-04-21T05:22:31.217Z,9.91
2023-04-21T05:25:03.518Z,10.05
2023-04-21T05:27:34.171Z,10.07
2023-04-21T05:30:03.886Z,10.05
2023-04-21T05:32:34.311Z,10.14
2023-04-21T05:35:04.296Z,10.12
2023-04-21T05:37:34.031Z,10.10
2023-04-21T05:40:06.784Z,10.23
2023-04-21T05:42:36.569Z,10.29
2023-04-21T05:45:07.537Z,10.25
2023-04-21T05:47:37.644Z,10.39
2023-04-21T05:50:08.118Z,10.53
2023-04-21T05:52:38.141Z,10.48
2023-04-21T05:55:10.856Z,10.71
2023-04-21T05:57:40.561Z,10.68
2023-04-21T06:00:12.016Z,10.78
2023-04-21T06:02:41.967Z,10.92
2023-04-21T06:05:11.804Z,11.07
2023-04-21T06:07:41.728Z,11.14
2023-04-21T06:10:16.187Z,11.18
2023-04-21T06:12:46.038Z,11.40
2023-04-21T06:15:15.874Z,11.60
2023-04-21T06:17:45.627Z,11.49
2023-04-21T06:20:15.630Z,11.82
2023-04-21T06:22:45.351Z,12.14
2023-04-21T06:25:17.753Z,12.23
2023-04-21T06:27:48.278Z,12.45
2023-04-21T06:30:18.424Z,12.55
2023-04-21T06:32:48.828Z,12.60
2023-04-21T06:35:20.683Z,12.66
2023-04-21T06:37:50.518Z,12.91
2023-04-21T06:40:22.981Z,13.02
2023-04-21T06:42:52.731Z,13.01
2023-04-21T06:45:22.672Z,13.29
2023-04-21T06:47:52.427Z,13.17
2023-04-21T06:50:22.190Z,13.19
2023-04-21T06:52:51.940Z,13.48
2023-04-21T06:55:24.334Z,13.60
2023-04-21T06:57:54.079Z,13.43
2023-04-21T07:00:23.837Z,13.29
2023-04-21T07:02:53.720Z,13.30
2023-04-21T07:05:23.530Z,13.36
2023-04-21T07:07:53.694Z,13.50
2023-04-21T07:10:26.184Z,13.22
2023-04-21T07:12:56.041Z,13.06
2023-04-21T07:15:25.886Z,12.90
2023-04-21T07:17:55.786Z,13.06
2023-04-21T07:20:25.510Z,13.10
2023-04-21T07:22:55.274Z,13.11
2023-04-21T07:25:27.623Z,13.08
2023-04-21T07:27:57.384Z,13.28
2023-04-21T07:30:27.328Z,13.37
2023-04-21T07:32:57.157Z,13.35
2023-04-21T07:35:27.012Z,13.35
2023-04-21T07:37:57.044Z,13.25
2023-04-21T07:40:30.682Z,13.24
2023-04-21T07:43:00.440Z,13.34
2023-04-21T07:45:30.161Z,13.43
2023-04-21T07:47:59.924Z,13.44
2023-04-21T07:50:29.855Z,13.48
2023-04-21T07:52:59.637Z,13.49
2023-04-21T07:55:32.511Z,13.64
2023-04-21T07:58:02.315Z,13.40
2023-04-21T08:00:32.048Z,13.77
2023-04-21T08:03:01.927Z,13.84
2023-04-21T08:05:35.030Z,13.66
2023-04-21T08:08:08.108Z,13.51
2023-04-21T08:10:40.423Z,13.78
2023-04-21T08:13:10.729Z,13.91
2023-04-21T08:15:40.569Z,14.13
2023-04-21T08:18:11.685Z,13.98
2023-04-21T08:20:41.489Z,14.24
2023-04-21T08:23:11.260Z,14.32
2023-04-21T08:25:43.695Z,14.49
2023-04-21T08:28:14.356Z,14.55
2023-04-21T08:30:44.390Z,14.77
2023-04-21T08:33:14.210Z,14.67
2023-04-21T08:35:59.161Z,14.79
2023-04-21T08:38:31.388Z,14.66
2023-04-21T08:41:06.418Z,14.79
2023-04-21T08:43:36.189Z,14.89
2023-04-21T08:46:10.084Z,15.15
2023-04-21T08:48:40.841Z,15.18
2023-04-21T08:51:12.438Z,15.19
2023-04-21T08:53:44.856Z,15.39
2023-04-21T08:56:17.203Z,15.58
2023-04-21T08:58:47.000Z,15.68
2023-04-21T09:01:16.940Z,15.72
2023-04-21T09:03:47.211Z,15.89
2023-04-21T09:06:17.467Z,16.00
2023-04-21T09:08:56.738Z,16.06
2023-04-21T09:11:29.097Z,16.25
2023-04-21T09:14:00.755Z,16.15
2023-04-21T09:16:36.042Z,16.16
2023-04-21T09:19:05.816Z,16.53
2023-04-21T09:21:35.558Z,16.61
2023-04-21T09:24:08.885Z,16.78
2023-04-21T09:26:41.964Z,16.43
2023-04-21T09:29:12.182Z,16.75
2023-04-21T09:31:42.125Z,16.69
2023-04-21T09:34:21.808Z,16.95
2023-04-21T09:36:52.135Z,17.00
2023-04-21T09:39:40.475Z,16.85
2023-04-21T09:42:18.190Z,16.84
2023-04-21T09:44:56.308Z,17.16
2023-04-21T09:47:42.891Z,17.23
2023-04-21T09:50:16.374Z,17.51
2023-04-21T09:52:48.906Z,17.53
2023-04-21T09:55:20.132Z,17.78
2023-04-21T09:57:54.830Z,17.94
2023-04-21T10:00:28.821Z,17.91
2023-04-21T10:03:01.270Z,18.05
2023-04-21T10:05:32.066Z,18.08
2023-04-21T10:08:02.033Z,18.21
2023-04-21T10:10:34.399Z,18.31
2023-04-21T10:13:07.696Z,18.48
2023-04-21T10:15:41.433Z,18.49
2023-04-21T10:18:16.255Z,18.48
2023-04-21T10:20:59.564Z,18.49
2023-04-21T10:23:34.186Z,18.47
2023-04-21T10:26:09.634Z,18.47
2023-04-21T10:28:47.084Z,18.54
2023-04-21T10:31:21.532Z,18.43
2023-04-21T10:34:15.837Z,18.55
2023-04-21T10:36:50.219Z,18.55
2023-04-21T10:39:30.541Z,18.64
2023-04-21T10:42:01.487Z,18.75
2023-04-21T10:44:34.229Z,18.58
2023-04-21T10:47:04.001Z,18.57
2023-04-21T10:49:33.805Z,18.90
2023-04-21T10:52:08.374Z,19.00
2023-04-21T10:54:46.145Z,19.08
2023-04-21T10:57:17.931Z,19.05
2023-04-21T10:59:51.184Z,19.13
2023-04-21T11:02:22.177Z,19.27
2023-04-21T11:04:54.528Z,19.34
2023-04-21T11:07:25.752Z,19.25
2023-04-21T11:10:00.525Z,19.36
2023-04-21T11:12:32.164Z,19.41
2023-04-21T11:15:07.597Z,19.52
2023-04-21T11:17:39.407Z,19.54
2023-04-21T11:20:10.931Z,19.53
2023-04-21T11:22:40.903Z,19.74
2023-04-21T11:25:20.112Z,19.69
2023-04-21T11:27:57.515Z,20.01
2023-04-21T11:30:36.999Z,19.90
2023-04-21T11:33:07.117Z,19.95
2023-04-21T11:35:43.722Z,19.93
2023-04-21T11:38:14.989Z,20.05
2023-04-21T11:40:49.372Z,19.95
2023-04-21T11:43:19.344Z,19.87
2023-04-21T11:45:54.227Z,20.15
2023-04-21T11:48:24.007Z,19.90
2023-04-21T11:50:53.861Z,20.22
2023-04-21T11:53:24.026Z,20.35
2023-04-21T11:55:57.074Z,20.19
2023-04-21T11:58:27.052Z,20.35
2023-04-21T12:00:59.403Z,20.00
2023-04-21T12:03:29.463Z,20.32
2023-04-21T12:06:00.133Z,20.23
2023-04-21T12:08:32.521Z,20.41
2023-04-21T12:11:03.037Z,20.37
2023-04-21T12:13:33.278Z,20.40
2023-04-21T12:16:08.911Z,20.50
2023-04-21T12:18:39.174Z,20.45
2023-04-21T12:21:09.193Z,20.43
2023-04-21T12:23:39.380Z,20.43
2023-04-21T12:26:09.206Z,20.66
2023-04-21T12:28:39.106Z,20.62
2023-04-21T12:31:11.589Z,20.70
2023-04-21T12:33:41.909Z,20.63
2023-04-21T12:36:11.731Z,20.68
2023-04-21T12:38:41.782Z,20.58
2023-04-21T12:41:11.534Z,20.61
2023-04-21T12:43:41.283Z,20.51
2023-04-21T12:46:13.707Z,20.61
2023-04-21T12:48:43.581Z,20.63
2023-04-21T12:51:13.331Z,20.52
2023-04-21T12:53:43.144Z,20.59
2023-04-21T12:56:13.240Z,20.39
2023-04-21T12:58:43.078Z,20.66
2023-04-21T13:01:16.268Z,20.72
2023-04-21T13:03:46.149Z,20.85
2023-04-21T13:06:16.164Z,20.77
2023-04-21T13:08:45.907Z,20.82
2023-04-21T13:11:15.685Z,20.99
2023-04-21T13:13:45.401Z,21.00
2023-04-21T13:16:18.398Z,21.03
2023-04-21T13:18:48.925Z,21.04
2023-04-21T13:21:18.718Z,21.14
2023-04-21T13:23:48.576Z,20.92
2023-04-21T13:26:18.815Z,20.97
2023-04-21T13:28:48.606Z,21.61
2023-04-21T13:31:21.135Z,21.40
2023-04-21T13:33:53.027Z,21.33
2023-04-21T13:36:23.683Z,21.38
2023-04-21T13:38:54.131Z,21.24
2023-04-21T13:41:23.884Z,21.24
2023-04-21T13:43:53.605Z,21.27
2023-04-21T13:46:25.952Z,21.08
2023-04-21T13:48:55.743Z,21.15
2023-04-21T13:51:25.626Z,21.21
2023-04-21T13:53:55.360Z,21.23
2023-04-21T13:56:25.653Z,21.16
2023-04-21T13:58:55.396Z,21.29
2023-04-21T14:01:27.951Z,21.47
2023-04-21T14:03:57.866Z,21.35
2023-04-21T14:06:28.122Z,21.36
2023-04-21T14:08:57.876Z,21.36
2023-04-21T14:11:27.669Z,21.17
2023-04-21T14:14:09.114Z,21.23
2023-04-21T14:16:42.281Z,21.34
2023-04-21T14:19:12.057Z,21.37
2023-04-21T14:21:41.759Z,21.42
2023-04-21T14:24:11.913Z,21.33
2023-04-21T14:26:41.652Z,21.31
2023-04-21T14:29:11.395Z,21.30
2023-04-21T14:31:43.799Z,21.35
2023-04-21T14:34:13.650Z,21.32
2023-04-21T14:36:43.556Z,21.23
2023-04-21T14:39:13.296Z,21.14
2023-04-21T14:41:43.024Z,21.04
2023-04-21T14:44:12.873Z,21.08
2023-04-21T14:46:53.336Z,21.06
2023-04-21T14:49:31.500Z,21.10
2023-04-21T14:52:01.467Z,21.02
2023-04-21T14:54:31.237Z,20.91
2023-04-21T14:57:17.561Z,21.10
2023-04-21T14:59:48.333Z,21.23
2023-04-21T15:02:22.040Z,21.29
2023-04-21T15:04:52.776Z,21.16
2023-04-21T15:07:24.858Z,21.34
2023-04-21T15:09:55.644Z,21.10
2023-04-21T15:12:25.506Z,20.88
2023-04-21T15:14:55.301Z,20.77
2023-04-21T15:17:27.723Z,20.81
2023-04-21T15:19:57.477Z,20.55
2023-04-21T15:22:27.475Z,20.35
2023-04-21T15:24:57.334Z,20.46
2023-04-21T15:27:27.064Z,20.50
2023-04-21T15:29:56.941Z,20.60
2023-04-21T15:32:29.396Z,20.57
2023-04-21T15:34:59.163Z,20.55
2023-04-21T15:37:28.927Z,20.80
2023-04-21T15:39:58.897Z,20.70
2023-04-21T15:42:28.798Z,20.78
2023-04-21T15:44:58.698Z,20.73
2023-04-21T15:47:32.138Z,20.73
2023-04-21T15:50:02.003Z,20.77
2023-04-21T15:52:31.945Z,20.73
2023-04-21T15:55:01.708Z,20.72
2023-04-21T15:57:31.555Z,20.65
2023-04-21T16:00:01.343Z,20.80
2023-04-21T16:02:34.100Z,20.74
2023-04-21T16:05:04.272Z,20.80
2023-04-21T16:07:34.436Z,20.94
2023-04-21T16:10:04.378Z,20.82
2023-04-21T16:12:34.161Z,20.66
2023-04-21T16:15:20.152Z,20.67
2023-04-21T16:17:55.888Z,20.59
2023-04-21T16:20:25.685Z,20.61
2023-04-21T16:22:55.446Z,20.66
2023-04-21T16:25:25.221Z,20.64
2023-04-21T16:27:55.245Z,20.47
2023-04-21T16:30:25.162Z,20.59
2023-04-21T16:32:57.436Z,20.46
2023-04-21T16:35:27.337Z,20.61
2023-04-21T16:37:57.376Z,20.70
2023-04-21T16:40:27.803Z,20.41
2023-04-21T16:42:57.619Z,20.56
2023-04-21T16:45:27.412Z,20.36
2023-04-21T16:48:00.173Z,20.43
2023-04-21T16:50:30.271Z,20.45
2023-04-21T16:52:59.999Z,20.44
2023-04-21T16:55:31.585Z,20.42
2023-04-21T16:58:02.203Z,20.37
2023-04-21T17:00:32.105Z,20.07
2023-04-21T17:03:04.636Z,20.29
2023-04-21T17:05:34.478Z,20.35
2023-04-21T17:08:05.590Z,20.33
2023-04-21T17:10:35.492Z,20.24
2023-04-21T17:13:06.243Z,20.17
2023-04-21T17:15:36.277Z,20.19
2023-04-21T17:18:08.793Z,20.20
2023-04-21T17:20:38.737Z,20.04
2023-04-21T17:23:08.481Z,19.99
2023-04-21T17:25:38.324Z,19.95
2023-04-21T17:28:08.503Z,19.99
2023-04-21T17:30:38.704Z,19.92
2023-04-21T17:33:17.002Z,19.93
2023-04-21T17:36:02.098Z,19.97
2023-04-21T17:38:32.462Z,19.73
2023-04-21T17:41:03.117Z,19.87
2023-04-21T17:43:32.877Z,19.83
2023-04-21T17:46:02.713Z,19.88
2023-04-21T17:48:35.084Z,19.71
2023-04-21T17:51:04.855Z,19.76
2023-04-21T17:53:34.853Z,19.56
2023-04-21T17:56:04.774Z,19.62
2023-04-21T17:58:34.800Z,19.58
2023-04-21T18:01:04.556Z,19.59
2023-04-21T18:03:41.453Z,19.50
2023-04-21T18:06:16.073Z,19.46
2023-04-21T18:08:46.020Z,19.36
2023-04-21T18:11:16.162Z,19.39
2023-04-21T18:13:45.954Z,19.29
2023-04-21T18:16:15.767Z,19.30
2023-04-21T18:18:48.119Z,19.02
2023-04-21T18:21:17.897Z,19.01
2023-04-21T18:23:47.783Z,19.14
2023-04-21T18:26:17.566Z,18.98
2023-04-21T18:28:47.405Z,19.02
2023-04-21T18:31:17.588Z,18.87
2023-04-21T18:33:50.299Z,18.86
2023-04-21T18:36:20.222Z,18.80
2023-04-21T18:38:50.488Z,18.71
2023-04-21T18:41:20.513Z,18.67
2023-04-21T18:43:50.542Z,18.59
2023-04-21T18:46:20.334Z,18.60
2023-04-21T18:48:53.391Z,18.59
2023-04-21T18:51:23.131Z,18.62
2023-04-21T18:53:52.905Z,18.51
2023-04-21T18:56:22.618Z,18.54
2023-04-21T18:58:52.336Z,18.43
2023-04-21T19:01:22.154Z,18.40
2023-04-21T19:03:54.951Z,18.44
2023-04-21T19:06:24.785Z,18.37
2023-04-21T19:08:55.138Z,18.43
2023-04-21T19:11:24.865Z,18.16
2023-04-21T19:13:54.706Z,18.16
2023-04-21T19:16:24.510Z,18.09
2023-04-21T19:18:57.226Z,18.24
2023-04-21T19:21:26.983Z,18.12
2023-04-21T19:23:57.907Z,18.21
2023-04-21T19:26:27.942Z,18.16
2023-04-21T19:28:57.736Z,18.20
2023-04-21T19:31:28.381Z,18.08
2023-04-21T19:34:00.799Z,18.02
2023-04-21T19:36:31.626Z,18.04
2023-04-21T19:39:01.838Z,18.00
2023-04-21T19:41:31.888Z,17.96
2023-04-21T19:44:01.759Z,17.82
2023-04-21T19:46:32.369Z,17.87
2023-04-21T19:49:04.719Z,17.84
2023-04-21T19:51:34.541Z,17.79
2023-04-21T19:54:11.266Z,17.56
2023-04-21T19:56:42.267Z,17.75
2023-04-21T19:59:12.026Z,17.68
2023-04-21T20:01:41.786Z,17.70
2023-04-21T20:04:14.265Z,17.66
2023-04-21T20:06:44.355Z,17.68
2023-04-21T20:09:14.133Z,17.59
2023-04-21T20:11:43.938Z,17.60
2023-04-21T20:14:14.063Z,17.65
2023-04-21T20:16:46.176Z,17.62
2023-04-21T20:19:19.062Z,17.55
2023-04-21T20:21:49.923Z,17.47
2023-04-21T20:24:19.690Z,17.43
2023-04-21T20:26:49.452Z,17.43
2023-04-21T20:29:19.241Z,17.31
2023-04-21T20:31:48.979Z,17.41
2023-04-21T20:34:21.364Z,17.41
2023-04-21T20:36:51.786Z,17.35
2023-04-21T20:39:21.618Z,17.37
2023-04-21T20:42:04.704Z,17.29
2023-04-21T20:44:42.855Z,17.22
2023-04-21T20:47:13.431Z,17.28
2023-04-21T20:49:47.610Z,17.12
2023-04-21T20:52:18.206Z,17.10
2023-04-21T20:54:47.934Z,16.99
2023-04-21T20:57:18.210Z,17.16
2023-04-21T20:59:48.013Z,17.18
2023-04-21T21:02:17.833Z,17.13
2023-04-21T21:04:50.350Z,17.12
2023-04-21T21:07:20.125Z,17.05
2023-04-21T21:09:49.864Z,16.88
2023-04-21T21:12:19.677Z,17.01
2023-04-21T21:14:49.493Z,17.00
2023-04-21T21:17:19.351Z,16.95
2023-04-21T21:19:51.845Z,16.85
2023-04-21T21:22:21.569Z,16.81
2023-04-21T21:24:51.424Z,16.67
2023-04-21T21:27:21.372Z,16.78
2023-04-21T21:29:51.620Z,16.69
2023-04-21T21:32:21.534Z,16.53
2023-04-21T21:34:53.953Z,16.51
2023-04-21T21:37:24.594Z,16.49
2023-04-21T21:39:55.473Z,16.56
2023-04-21T21:42:25.404Z,16.50
2023-04-21T21:44:55.533Z,16.53
2023-04-21T21:47:25.339Z,16.22
2023-04-21T21:49:59.095Z,16.36
2023-04-21T21:52:29.037Z,16.39
2023-04-21T21:54:58.930Z,16.43
2023-04-21T21:57:28.811Z,16.40
2023-04-21T22:00:00.556Z,16.35
2023-04-21T22:02:30.561Z,16.26
2023-04-21T22:05:04.573Z,16.37
2023-04-21T22:07:35.604Z,16.29
2023-04-21T22:10:05.700Z,16.30
2023-04-21T22:12:35.677Z,16.25
2023-04-21T22:15:07.102Z,16.24
2023-04-21T22:17:38.129Z,16.17
2023-04-21T22:20:12.316Z,16.14
2023-04-21T22:22:42.112Z,16.74
2023-04-21T22:25:13.570Z,16.37
2023-04-21T22:27:43.393Z,16.25
2023-04-21T22:30:14.137Z,16.07
2023-04-21T22:32:43.920Z,15.94
2023-04-21T22:35:16.361Z,15.85
2023-04-21T22:37:46.129Z,15.87
2023-04-21T22:40:16.250Z,15.68
2023-04-21T22:42:46.043Z,15.71
2023-04-21T22:45:15.953Z,15.65
2023-04-21T22:47:45.769Z,15.58
2023-04-21T22:50:18.296Z,15.53
2023-04-21T22:52:48.184Z,15.12
2023-04-21T22:55:18.000Z,15.23
2023-04-21T22:57:47.799Z,15.06
2023-04-21T23:00:17.862Z,14.99
2023-04-21T23:02:47.934Z,14.44
2023-04-21T23:05:20.508Z,14.59
2023-04-21T23:07:50.308Z,14.68
2023-04-21T23:10:20.303Z,14.74
2023-04-21T23:12:50.018Z,14.69
2023-04-21T23:15:19.828Z,14.61
2023-04-21T23:17:49.615Z,14.52
2023-04-21T23:20:22.266Z,15.20
2023-04-21T23:22:52.366Z,14.78
2023-04-21T23:25:22.321Z,14.51
2023-04-21T23:27:52.141Z,14.43
2023-04-21T23:30:21.989Z,14.33
2023-04-21T23:32:51.848Z,14.29
2023-04-21T23:35:24.252Z,14.26
2023-04-21T23:37:54.012Z,14.20
2023-04-21T23:40:23.791Z,14.11
2023-04-21T23:42:53.686Z,14.07
2023-04-21T23:45:23.703Z,14.10
2023-04-21T23:47:53.490Z,13.93
2023-04-21T23:50:25.898Z,13.83
2023-04-21T23:52:56.092Z,13.93
2023-04-21T23:55:26.028Z,13.94
2023-04-21T23:57:55.847Z,13.88
